Temp: 0.4°C   Baro: 1049.5mb
  Wind: 0.9mph   Dir: NW (316°)
  Rain: 0.0mm (0.0mm/hr)
  Solar: 0W/m2  Hum: 94%
 
Bath Spa Weather Historical Data
Daily Summary for November 2, 2019 Units:  Metric    English   Both
Next Day »
Daily Weekly Monthly Yearly Custom
  High: Low: Average:
Temperature: 13.2 °C 9.1 °C 10.8 °C
Dew Point: 11.6 °C 6.2 °C 8.7 °C
Humidity: 93% 76% 87%
Wind Speed: 45.1km/h 1.4km/h 13.7km/h
Wind Gust: 53.1km/h - -
Wind direction- - WSW
Pressure: 986.3 hPa 972.5 hPa -
Precipitation: 19.0 mm    
Historical Graphs
 
 
Tabular Data for November 2, 2019
Time Temperature Dew Point Pressure Wind direction Wind Speed Wind Gust Humidity Rainfall Rate (Hourly) solar
00:00 13.2 °C 11.6 °C 986.0 hPa WNW 13.0 km/h 19.3 km/h 90% 0.0 mm 0.00 W/m2
00:05 13.2 °C 11.6 °C 986.0 hPa West 9.7 km/h 12.9 km/h 90% 0.0 mm 0.00 W/m2
00:10 13.1 °C 11.3 °C 986.3 hPa West 14.3 km/h 27.4 km/h 89% 0.0 mm 0.00 W/m2
00:15 13.1 °C 11.2 °C 986.3 hPa West 14.3 km/h 33.8 km/h 88% 0.0 mm 0.00 W/m2
00:20 13.0 °C 11.1 °C 986.3 hPa West 32.0 km/h 32.2 km/h 88% 0.0 mm 0.00 W/m2
00:25 13.0 °C 11.1 °C 986.0 hPa West 11.1 km/h 25.7 km/h 88% 0.0 mm 0.00 W/m2
00:30 12.9 °C 11.0 °C 986.3 hPa West 14.3 km/h 16.1 km/h 88% 0.0 mm 0.00 W/m2
00:35 12.9 °C 11.0 °C 986.3 hPa WSW 9.7 km/h 16.1 km/h 88% 0.0 mm 0.00 W/m2
00:40 12.8 °C 10.9 °C 986.0 hPa West 13.0 km/h 24.1 km/h 88% 0.0 mm 0.00 W/m2
00:45 12.6 °C 10.7 °C 986.0 hPa WSW 16.3 km/h 27.4 km/h 88% 0.0 mm 0.00 W/m2
00:50 12.6 °C 10.7 °C 986.0 hPa West 9.7 km/h 29.0 km/h 88% 0.0 mm 0.00 W/m2
00:55 12.6 °C 10.5 °C 985.7 hPa WSW 16.3 km/h 22.5 km/h 87% 0.0 mm 0.00 W/m2
01:00 12.6 °C 10.5 °C 985.7 hPa SSW 19.5 km/h 27.4 km/h 87% 0.0 mm 0.00 W/m2
01:05 12.6 °C 10.3 °C 986.0 hPa SW 9.7 km/h 30.6 km/h 86% 0.0 mm 0.00 W/m2
01:10 12.4 °C 10.3 °C 985.7 hPa WSW 14.3 km/h 24.1 km/h 87% 0.0 mm 0.00 W/m2
01:15 12.3 °C 10.2 °C 985.7 hPa WSW 13.0 km/h 19.3 km/h 87% 0.0 mm 0.00 W/m2
01:20 12.2 °C 10.1 °C 985.7 hPa WSW 6.4 km/h 17.7 km/h 87% 0.0 mm 0.00 W/m2
01:25 12.2 °C 10.1 °C 985.3 hPa SW 13.0 km/h 17.7 km/h 87% 0.0 mm 0.00 W/m2
01:30 12.1 °C 10.0 °C 985.3 hPa WSW 11.1 km/h 11.3 km/h 87% 0.0 mm 0.00 W/m2
01:35 12.1 °C 10.0 °C 985.3 hPa SW 7.9 km/h 14.5 km/h 87% 0.0 mm 0.00 W/m2
01:40 12.0 °C 9.9 °C 985.3 hPa SW 11.1 km/h 20.9 km/h 87% 0.0 mm 0.00 W/m2
01:45 12.1 °C 10.0 °C 985.3 hPa WSW 9.7 km/h 19.3 km/h 87% 0.0 mm 0.00 W/m2
01:50 12.1 °C 10.0 °C 985.3 hPa SW 13.0 km/h 19.3 km/h 87% 0.0 mm 0.00 W/m2
01:55 12.1 °C 10.0 °C 985.3 hPa SW 16.3 km/h 19.3 km/h 87% 0.0 mm 0.00 W/m2
02:00 12.1 °C 10.0 °C 985.3 hPa SSW 14.3 km/h 22.5 km/h 87% 0.0 mm 0.00 W/m2
02:05 12.1 °C 9.8 °C 985.0 hPa WSW 13.0 km/h 24.1 km/h 86% 0.0 mm 0.00 W/m2
02:10 12.1 °C 9.7 °C 985.0 hPa WSW 13.0 km/h 24.1 km/h 85% 0.0 mm 0.00 W/m2
02:15 12.2 °C 9.4 °C 985.0 hPa WSW 14.3 km/h 22.5 km/h 83% 0.0 mm 0.00 W/m2
02:20 12.2 °C 9.0 °C 985.0 hPa WSW 14.3 km/h 27.4 km/h 81% 0.0 mm 0.00 W/m2
02:25 12.1 °C 8.8 °C 985.0 hPa WSW 19.5 km/h 29.0 km/h 80% 0.0 mm 0.00 W/m2
02:30 12.1 °C 8.6 °C 985.0 hPa SW 16.3 km/h 30.6 km/h 79% 0.0 mm 0.00 W/m2
02:35 11.9 °C 8.4 °C 985.0 hPa WSW 7.9 km/h 19.3 km/h 79% 0.0 mm 0.00 W/m2
02:40 11.8 °C 8.3 °C 985.0 hPa WSW 13.0 km/h 29.0 km/h 79% 0.0 mm 0.00 W/m2
02:45 11.8 °C 8.3 °C 984.6 hPa WSW 17.7 km/h 17.7 km/h 79% 0.0 mm 0.00 W/m2
02:50 11.8 °C 8.1 °C 984.6 hPa WSW 11.1 km/h 22.5 km/h 78% 0.0 mm 0.00 W/m2
02:55 11.7 °C 8.0 °C 984.6 hPa WSW 16.3 km/h 20.9 km/h 78% 0.0 mm 0.00 W/m2
03:00 11.7 °C 7.8 °C 984.6 hPa WSW 9.7 km/h 22.5 km/h 77% 0.0 mm 0.00 W/m2
03:05 11.6 °C 7.9 °C 984.6 hPa SSW 13.0 km/h 22.5 km/h 78% 0.0 mm 0.00 W/m2
03:10 11.4 °C 7.5 °C 984.6 hPa West 13.0 km/h 24.1 km/h 77% 0.0 mm 0.00 W/m2
03:15 11.3 °C 7.6 °C 984.6 hPa SW 19.5 km/h 22.5 km/h 78% 0.0 mm 0.00 W/m2
03:20 11.2 °C 7.3 °C 984.6 hPa WSW 24.1 km/h 29.0 km/h 77% 0.0 mm 0.00 W/m2
03:25 11.2 °C 7.1 °C 984.3 hPa SW 17.7 km/h 29.0 km/h 76% 0.0 mm 0.00 W/m2
03:30 11.2 °C 7.1 °C 984.3 hPa WSW 6.4 km/h 19.3 km/h 76% 0.0 mm 0.00 W/m2
03:35 11.1 °C 7.0 °C 984.3 hPa West 9.7 km/h 32.2 km/h 76% 0.0 mm 0.00 W/m2
03:40 10.9 °C 6.8 °C 984.3 hPa WSW 19.5 km/h 22.5 km/h 76% 0.0 mm 0.00 W/m2
03:45 10.8 °C 6.7 °C 984.3 hPa West 14.3 km/h 19.3 km/h 76% 0.0 mm 0.00 W/m2
03:50 10.8 °C 6.7 °C 984.3 hPa SW 24.1 km/h 24.1 km/h 76% 0.0 mm 0.00 W/m2
03:55 10.7 °C 6.6 °C 984.0 hPa South 11.1 km/h 20.9 km/h 76% 0.0 mm 0.00 W/m2
04:00 10.6 °C 6.5 °C 983.6 hPa SW 19.5 km/h 19.3 km/h 76% 0.0 mm 0.00 W/m2
04:05 10.5 °C 6.4 °C 984.0 hPa SW 9.7 km/h 22.5 km/h 76% 0.0 mm 0.00 W/m2
04:10 10.5 °C 6.6 °C 983.6 hPa West 6.4 km/h 29.0 km/h 77% 0.0 mm 0.00 W/m2
04:15 10.5 °C 6.6 °C 983.6 hPa WSW 22.7 km/h 30.6 km/h 77% 0.0 mm 0.00 W/m2
04:20 10.4 °C 6.5 °C 983.6 hPa WSW 13.0 km/h 24.1 km/h 77% 0.0 mm 0.00 W/m2
04:25 10.3 °C 6.4 °C 983.6 hPa SW 13.0 km/h 14.5 km/h 77% 0.0 mm 0.00 W/m2
04:30 10.2 °C 6.3 °C 983.3 hPa SW 11.1 km/h 19.3 km/h 77% 0.0 mm 0.00 W/m2
04:35 10.2 °C 6.3 °C 983.3 hPa SW 6.4 km/h 16.1 km/h 77% 0.0 mm 0.00 W/m2
04:40 10.2 °C 6.5 °C 983.3 hPa SW 6.4 km/h 14.5 km/h 78% 0.0 mm 0.00 W/m2
04:45 10.1 °C 6.4 °C 983.3 hPa SSW 14.3 km/h 14.5 km/h 78% 0.0 mm 0.00 W/m2
04:50 10.1 °C 6.4 °C 983.0 hPa SW 14.3 km/h 17.7 km/h 78% 0.0 mm 0.00 W/m2
04:55 10.2 °C 6.3 °C 983.0 hPa SSW 17.7 km/h 29.0 km/h 77% 0.0 mm 0.00 W/m2
05:00 10.1 °C 6.3 °C 983.0 hPa SSW 16.3 km/h 27.4 km/h 77% 0.0 mm 0.00 W/m2
05:05 10.1 °C 6.3 °C 983.0 hPa SSW 7.9 km/h 20.9 km/h 77% 0.0 mm 0.00 W/m2
05:10 10.0 °C 6.2 °C 983.0 hPa SW 6.4 km/h 17.7 km/h 77% 0.0 mm 0.00 W/m2
05:15 10.0 °C 6.3 °C 983.0 hPa South 7.9 km/h 19.3 km/h 78% 0.0 mm 0.00 W/m2
05:20 10.1 °C 6.4 °C 982.6 hPa SSW 4.7 km/h 20.9 km/h 78% 0.0 mm 0.00 W/m2
05:25 10.1 °C 6.4 °C 982.3 hPa SW 9.7 km/h 16.1 km/h 78% 0.0 mm 0.00 W/m2
05:30 10.1 °C 6.4 °C 982.3 hPa WSW 11.1 km/h 11.3 km/h 78% 0.0 mm 0.00 W/m2
05:35 10.1 °C 6.4 °C 981.9 hPa South 16.3 km/h 22.5 km/h 78% 0.0 mm 0.00 W/m2
05:40 10.2 °C 6.7 °C 981.9 hPa SSW 14.3 km/h 22.5 km/h 79% 0.0 mm 0.00 W/m2
05:45 10.3 °C 6.8 °C 981.6 hPa SSW 6.4 km/h 8.0 km/h 79% 0.0 mm 0.00 W/m2
05:50 10.3 °C 7.0 °C 981.6 hPa SSW 14.3 km/h 17.7 km/h 80% 0.0 mm 0.00 W/m2
05:55 10.3 °C 7.0 °C 981.3 hPa SSW 22.7 km/h 22.5 km/h 80% 0.0 mm 0.00 W/m2
06:00 10.4 °C 7.1 °C 980.9 hPa South 13.0 km/h 22.5 km/h 80% 0.0 mm 0.00 W/m2
06:05 10.4 °C 7.1 °C 980.9 hPa SSW 9.7 km/h 20.9 km/h 80% 0.0 mm 0.00 W/m2
06:10 10.5 °C 7.2 °C 980.9 hPa SSE 29.0 km/h 29.0 km/h 80% 0.0 mm 0.00 W/m2
06:15 10.7 °C 7.4 °C 980.6 hPa South 7.9 km/h 20.9 km/h 80% 0.0 mm 0.00 W/m2
06:20 10.7 °C 7.6 °C 980.2 hPa South 11.1 km/h 20.9 km/h 81% 0.0 mm 0.00 W/m2
06:25 10.7 °C 7.6 °C 979.9 hPa South 16.3 km/h 24.1 km/h 81% 0.0 mm 0.00 W/m2
06:30 10.8 °C 7.7 °C 979.9 hPa SSW 4.7 km/h 12.9 km/h 81% 0.0 mm 0.00 W/m2
06:35 10.9 °C 7.8 °C 979.6 hPa SSW 7.9 km/h 11.3 km/h 81% 0.0 mm 0.00 W/m2
06:40 11.1 °C 7.8 °C 979.2 hPa SW 16.3 km/h 22.5 km/h 80% 0.0 mm 0.00 W/m2
06:45 11.1 °C 7.8 °C 978.9 hPa South 14.3 km/h 22.5 km/h 80% 0.0 mm 0.00 W/m2
06:50 11.3 °C 8.0 °C 978.6 hPa SSW 6.4 km/h 24.1 km/h 80% 0.0 mm 0.00 W/m2
06:55 11.1 °C 8.0 °C 978.6 hPa SW 24.1 km/h 37.0 km/h 81% 0.0 mm 0.00 W/m2
07:00 10.9 °C 7.9 °C 978.6 hPa SE 16.3 km/h 25.7 km/h 82% 0.0 mm 0.00 W/m2
07:05 10.7 °C 7.9 °C 978.2 hPa South 14.3 km/h 33.8 km/h 83% 0.3 mm 0.00 W/m2
07:10 10.6 °C 8.0 °C 977.5 hPa SSW 6.4 km/h 16.1 km/h 84% 0.3 mm 0.00 W/m2
07:15 10.5 °C 8.1 °C 977.2 hPa SSE 14.3 km/h 29.0 km/h 85% 0.5 mm 0.00 W/m2
07:20 10.4 °C 8.0 °C 977.2 hPa SSW 4.7 km/h 24.1 km/h 85% 0.8 mm 0.00 W/m2
07:25 10.2 °C 8.1 °C 976.9 hPa SSW 16.3 km/h 33.8 km/h 87% 1.5 mm 0.00 W/m2
07:30 10.1 °C 8.0 °C 976.9 hPa WSW 11.1 km/h 24.1 km/h 87% 2.3 mm 0.00 W/m2
07:35 9.9 °C 7.8 °C 976.5 hPa South 14.3 km/h 41.8 km/h 87% 2.5 mm 0.00 W/m2
07:40 9.8 °C 7.7 °C 975.8 hPa SW 13.0 km/h 30.6 km/h 87% 2.8 mm 0.00 W/m2
07:45 9.6 °C 7.5 °C 975.5 hPa South 17.7 km/h 30.6 km/h 87% 3.0 mm 0.00 W/m2
07:50 9.5 °C 7.6 °C 974.8 hPa South 33.8 km/h 33.8 km/h 88% 3.3 mm 5.00 W/m2
07:55 9.5 °C 7.6 °C 974.5 hPa South 13.0 km/h 35.4 km/h 88% 3.3 mm 7.00 W/m2
08:00 9.6 °C 7.9 °C 974.5 hPa South 24.1 km/h 53.1 km/h 89% 3.6 mm 5.00 W/m2
08:05 9.6 °C 7.9 °C 974.2 hPa SSE 17.7 km/h 33.8 km/h 89% 3.3 mm 12.00 W/m2
08:10 9.8 °C 8.1 °C 974.2 hPa SSW 9.7 km/h 45.1 km/h 89% 3.3 mm 7.00 W/m2
08:15 9.7 °C 8.1 °C 973.8 hPa SW 13.0 km/h 25.7 km/h 90% 3.0 mm 9.00 W/m2
08:20 9.8 °C 8.2 °C 973.5 hPa South 17.7 km/h 37.0 km/h 90% 2.8 mm 18.00 W/m2
08:25 10.1 °C 8.5 °C 973.5 hPa SW 16.3 km/h 32.2 km/h 90% 2.3 mm 30.00 W/m2
08:30 10.3 °C 8.9 °C 973.1 hPa South 11.1 km/h 22.5 km/h 91% 1.5 mm 26.00 W/m2
08:35 10.6 °C 9.2 °C 972.8 hPa South 22.7 km/h 41.8 km/h 91% 1.3 mm 44.00 W/m2
08:40 10.8 °C 9.2 °C 973.1 hPa South 14.3 km/h 27.4 km/h 90% 1.0 mm 26.00 W/m2
08:45 10.9 °C 9.5 °C 972.8 hPa SW 22.7 km/h 33.8 km/h 91% 0.8 mm 53.00 W/m2
08:50 11.1 °C 9.7 °C 972.5 hPa SW 14.3 km/h 41.8 km/h 91% 0.5 mm 76.00 W/m2
08:55 11.6 °C 9.8 °C 972.5 hPa SSW 25.9 km/h 35.4 km/h 89% 0.5 mm 65.00 W/m2
09:00 11.7 °C 9.8 °C 972.5 hPa WSW 37.0 km/h 37.0 km/h 88% 0.5 mm 74.00 W/m2
09:05 11.6 °C 9.8 °C 972.5 hPa SW 22.7 km/h 24.1 km/h 89% 0.5 mm 62.00 W/m2
09:10 11.7 °C 9.9 °C 972.5 hPa NW 22.7 km/h 27.4 km/h 89% 0.5 mm 81.00 W/m2
09:15 11.7 °C 9.9 °C 972.8 hPa SW 17.7 km/h 33.8 km/h 89% 0.5 mm 155.00 W/m2
09:20 11.9 °C 10.0 °C 972.8 hPa SW 14.3 km/h 30.6 km/h 88% 0.5 mm 185.00 W/m2
09:25 12.1 °C 10.2 °C 972.5 hPa WSW 14.3 km/h 19.3 km/h 88% 0.3 mm 125.00 W/m2
09:30 12.2 °C 9.9 °C 972.8 hPa SW 11.1 km/h 35.4 km/h 86% 0.3 mm 90.00 W/m2
09:35 12.2 °C 9.9 °C 972.8 hPa WSW 14.3 km/h 25.7 km/h 86% 0.3 mm 81.00 W/m2
09:40 12.3 °C 9.9 °C 972.8 hPa WSW 19.5 km/h 29.0 km/h 85% 0.3 mm 134.00 W/m2
09:45 12.4 °C 9.8 °C 972.8 hPa SW 19.5 km/h 38.6 km/h 84% 0.3 mm 104.00 W/m2
09:50 12.4 °C 9.8 °C 972.8 hPa WSW 35.2 km/h 48.3 km/h 84% 0.3 mm 137.00 W/m2
09:55 12.5 °C 9.7 °C 973.1 hPa West 17.7 km/h 53.1 km/h 83% 0.0 mm 51.00 W/m2
10:00 12.4 °C 9.4 °C 973.1 hPa West 28.8 km/h 35.4 km/h 82% 0.0 mm 40.00 W/m2
10:05 12.3 °C 9.5 °C 973.5 hPa West 45.1 km/h 53.1 km/h 83% 0.0 mm 35.00 W/m2
10:10 12.2 °C 9.4 °C 973.8 hPa WNW 30.6 km/h 33.8 km/h 83% 0.0 mm 35.00 W/m2
10:15 12.2 °C 9.6 °C 974.2 hPa WSW 16.3 km/h 38.6 km/h 84% 0.0 mm 160.00 W/m2
10:20 12.2 °C 9.6 °C 974.5 hPa WSW 14.3 km/h 35.4 km/h 84% 0.0 mm 269.00 W/m2
10:25 12.2 °C 9.6 °C 974.5 hPa West 24.1 km/h 35.4 km/h 84% 0.0 mm 149.00 W/m2
10:30 12.2 °C 9.6 °C 974.8 hPa West 25.9 km/h 45.1 km/h 84% 0.0 mm 292.00 W/m2
10:35 12.3 °C 9.5 °C 974.8 hPa WNW 9.7 km/h 27.4 km/h 83% 0.0 mm 366.00 W/m2
10:40 12.1 °C 9.3 °C 975.2 hPa WNW 19.5 km/h 41.8 km/h 83% 0.0 mm 105.00 W/m2
10:45 11.9 °C 9.1 °C 975.2 hPa West 19.5 km/h 30.6 km/h 83% 0.0 mm 174.00 W/m2
10:50 11.9 °C 9.1 °C 975.5 hPa West 17.7 km/h 30.6 km/h 83% 0.0 mm 234.00 W/m2
10:55 11.8 °C 9.0 °C 975.5 hPa West 24.1 km/h 38.6 km/h 83% 0.0 mm 283.00 W/m2
11:00 11.9 °C 9.1 °C 975.5 hPa WNW 14.3 km/h 30.6 km/h 83% 0.0 mm 316.00 W/m2
11:05 12.0 °C 9.0 °C 975.8 hPa WNW 20.9 km/h 35.4 km/h 82% 0.0 mm 352.00 W/m2
11:10 12.1 °C 8.9 °C 975.8 hPa West 13.0 km/h 32.2 km/h 81% 0.0 mm 288.00 W/m2
11:15 12.1 °C 8.9 °C 975.8 hPa WNW 17.7 km/h 40.2 km/h 81% 0.0 mm 132.00 W/m2
11:20 12.0 °C 8.8 °C 975.8 hPa WSW 16.3 km/h 35.4 km/h 81% 0.0 mm 134.00 W/m2
11:25 11.9 °C 8.9 °C 975.8 hPa NW 11.1 km/h 20.9 km/h 82% 0.0 mm 213.00 W/m2
11:30 12.0 °C 9.0 °C 976.2 hPa WSW 20.9 km/h 25.7 km/h 82% 0.0 mm 163.00 W/m2
11:35 12.0 °C 9.0 °C 976.2 hPa WNW 20.9 km/h 30.6 km/h 82% 0.0 mm 230.00 W/m2
11:40 11.9 °C 8.9 °C 976.2 hPa WNW 14.3 km/h 27.4 km/h 82% 0.0 mm 206.00 W/m2
11:45 12.0 °C 9.2 °C 976.2 hPa WNW 19.5 km/h 29.0 km/h 83% 0.0 mm 142.00 W/m2
11:50 12.0 °C 9.2 °C 976.2 hPa West 6.4 km/h 17.7 km/h 83% 0.0 mm 120.00 W/m2
11:55 11.9 °C 9.1 °C 976.2 hPa WNW 9.7 km/h 22.5 km/h 83% 0.0 mm 116.00 W/m2
12:00 11.8 °C 9.0 °C 976.2 hPa WNW 6.4 km/h 19.3 km/h 83% 0.0 mm 77.00 W/m2
12:05 11.8 °C 9.2 °C 976.2 hPa WNW 6.4 km/h 17.7 km/h 84% 0.0 mm 69.00 W/m2
12:10 11.4 °C 9.0 °C 976.2 hPa WNW 11.1 km/h 16.1 km/h 85% 0.3 mm 93.00 W/m2
12:15 11.3 °C 9.2 °C 976.2 hPa West 6.4 km/h 14.5 km/h 87% 0.3 mm 84.00 W/m2
12:20 11.3 °C 9.4 °C 976.2 hPa West 7.9 km/h 12.9 km/h 88% 0.3 mm 83.00 W/m2
12:25 11.3 °C 9.4 °C 976.2 hPa WSW 6.4 km/h 24.1 km/h 88% 0.5 mm 74.00 W/m2
12:30 11.3 °C 9.6 °C 976.2 hPa WSW 4.7 km/h 14.5 km/h 89% 0.5 mm 97.00 W/m2
12:35 11.2 °C 9.5 °C 976.2 hPa WSW 6.4 km/h 14.5 km/h 89% 0.8 mm 149.00 W/m2
12:40 11.3 °C 9.7 °C 976.2 hPa SW 9.7 km/h 14.5 km/h 90% 0.8 mm 160.00 W/m2
12:45 11.4 °C 9.8 °C 975.8 hPa West 13.0 km/h 20.9 km/h 90% 0.8 mm 162.00 W/m2
12:50 11.4 °C 9.8 °C 976.2 hPa SW 6.4 km/h 22.5 km/h 90% 0.8 mm 139.00 W/m2
12:55 11.5 °C 9.9 °C 976.2 hPa WSW 7.9 km/h 22.5 km/h 90% 0.8 mm 142.00 W/m2
13:00 11.5 °C 9.9 °C 976.2 hPa WSW 13.0 km/h 22.5 km/h 90% 1.0 mm 65.00 W/m2
13:05 11.5 °C 9.9 °C 976.2 hPa WSW 9.7 km/h 20.9 km/h 90% 1.0 mm 49.00 W/m2
13:10 11.3 °C 9.7 °C 976.2 hPa SW 11.1 km/h 20.9 km/h 90% 1.3 mm 49.00 W/m2
13:15 11.3 °C 9.9 °C 975.8 hPa SW 7.9 km/h 16.1 km/h 91% 1.3 mm 76.00 W/m2
13:20 11.2 °C 9.8 °C 975.8 hPa West 11.1 km/h 25.7 km/h 91% 1.5 mm 51.00 W/m2
13:25 11.2 °C 9.8 °C 975.8 hPa West 16.3 km/h 17.7 km/h 91% 1.3 mm 26.00 W/m2
13:30 11.2 °C 9.8 °C 976.2 hPa West 7.9 km/h 16.1 km/h 91% 1.5 mm 39.00 W/m2
13:35 11.1 °C 9.8 °C 976.2 hPa WSW 16.3 km/h 16.1 km/h 92% 1.8 mm 47.00 W/m2
13:40 11.1 °C 9.8 °C 976.2 hPa West 6.4 km/h 16.1 km/h 92% 2.3 mm 40.00 W/m2
13:45 11.1 °C 9.8 °C 976.2 hPa WSW 9.7 km/h 14.5 km/h 92% 3.3 mm 44.00 W/m2
13:50 11.1 °C 9.8 °C 976.2 hPa WNW 25.9 km/h 25.7 km/h 92% 4.1 mm 46.00 W/m2
13:55 11.0 °C 9.8 °C 976.2 hPa West 13.0 km/h 20.9 km/h 92% 4.3 mm 42.00 W/m2
14:00 10.8 °C 9.6 °C 976.2 hPa WSW 19.5 km/h 22.5 km/h 92% 4.8 mm 32.00 W/m2
14:05 10.8 °C 9.6 °C 976.5 hPa WNW 7.9 km/h 29.0 km/h 92% 5.3 mm 40.00 W/m2
14:10 10.8 °C 9.7 °C 976.2 hPa WNW 20.9 km/h 27.4 km/h 93% 5.1 mm 44.00 W/m2
14:15 11.2 °C 10.1 °C 976.2 hPa WSW 19.5 km/h 38.6 km/h 93% 5.1 mm 47.00 W/m2
14:20 11.4 °C 10.3 °C 976.2 hPa West 27.4 km/h 32.2 km/h 93% 4.8 mm 62.00 W/m2
14:25 11.6 °C 10.5 °C 976.2 hPa West 27.4 km/h 27.4 km/h 93% 4.6 mm 62.00 W/m2
14:30 11.6 °C 10.3 °C 976.5 hPa West 24.1 km/h 46.7 km/h 92% 4.6 mm 23.00 W/m2
14:35 11.4 °C 10.1 °C 976.5 hPa West 11.1 km/h 38.6 km/h 92% 5.1 mm 16.00 W/m2
14:40 11.2 °C 9.9 °C 976.5 hPa West 19.5 km/h 43.4 km/h 92% 5.8 mm 9.00 W/m2
14:45 11.0 °C 9.8 °C 976.5 hPa WNW 20.9 km/h 35.4 km/h 92% 5.1 mm 11.00 W/m2
14:50 10.5 °C 9.3 °C 976.5 hPa NW 17.7 km/h 38.6 km/h 92% 5.8 mm 14.00 W/m2
14:55 10.4 °C 9.2 °C 976.5 hPa WNW 24.1 km/h 33.8 km/h 92% 6.1 mm 11.00 W/m2
15:00 10.4 °C 9.2 °C 976.9 hPa West 14.3 km/h 27.4 km/h 92% 5.3 mm 9.00 W/m2
15:05 10.5 °C 9.3 °C 976.9 hPa WNW 14.3 km/h 24.1 km/h 92% 5.1 mm 9.00 W/m2
15:10 10.5 °C 9.3 °C 976.9 hPa West 17.7 km/h 20.9 km/h 92% 5.1 mm 14.00 W/m2
15:15 10.5 °C 9.4 °C 976.9 hPa West 6.4 km/h 12.9 km/h 93% 5.3 mm 12.00 W/m2
15:20 10.6 °C 9.5 °C 976.5 hPa West 6.4 km/h 12.9 km/h 93% 5.3 mm 14.00 W/m2
15:25 11.0 °C 9.9 °C 976.5 hPa West 22.7 km/h 27.4 km/h 93% 5.6 mm 18.00 W/m2
15:30 11.2 °C 10.1 °C 976.9 hPa WSW 20.9 km/h 27.4 km/h 93% 5.1 mm 19.00 W/m2
15:35 11.2 °C 10.1 °C 976.9 hPa WSW 24.1 km/h 27.4 km/h 93% 4.3 mm 21.00 W/m2
15:40 11.2 °C 10.1 °C 976.9 hPa WSW 14.3 km/h 33.8 km/h 93% 3.3 mm 28.00 W/m2
15:45 11.3 °C 10.2 °C 976.9 hPa West 6.4 km/h 24.1 km/h 93% 2.8 mm 21.00 W/m2
15:50 11.3 °C 10.0 °C 976.9 hPa SW 13.0 km/h 24.1 km/h 92% 1.5 mm 9.00 W/m2
15:55 11.2 °C 9.9 °C 976.9 hPa West 14.3 km/h 33.8 km/h 92% 1.0 mm 12.00 W/m2
16:00 11.1 °C 9.8 °C 977.2 hPa WSW 13.0 km/h 24.1 km/h 92% 1.3 mm 12.00 W/m2
16:05 11.0 °C 9.8 °C 977.2 hPa WSW 19.5 km/h 37.0 km/h 92% 1.3 mm 9.00 W/m2
16:10 10.9 °C 9.7 °C 977.2 hPa West 9.7 km/h 27.4 km/h 92% 1.3 mm 9.00 W/m2
16:15 10.9 °C 9.7 °C 977.2 hPa West 17.7 km/h 32.2 km/h 92% 1.3 mm 5.00 W/m2
16:20 10.9 °C 9.7 °C 977.2 hPa West 17.7 km/h 29.0 km/h 92% 1.5 mm 5.00 W/m2
16:25 10.9 °C 9.7 °C 977.2 hPa WSW 17.7 km/h 30.6 km/h 92% 1.3 mm 0.00 W/m2
16:30 10.8 °C 9.6 °C 977.5 hPa WSW 19.5 km/h 32.2 km/h 92% 1.3 mm 0.00 W/m2
16:35 10.7 °C 9.5 °C 977.2 hPa WSW 7.9 km/h 29.0 km/h 92% 1.5 mm 0.00 W/m2
16:40 10.7 °C 9.5 °C 977.2 hPa WSW 13.0 km/h 20.9 km/h 92% 1.5 mm 0.00 W/m2
16:45 10.6 °C 9.4 °C 977.5 hPa SW 25.9 km/h 27.4 km/h 92% 1.5 mm 0.00 W/m2
16:50 10.6 °C 9.4 °C 977.5 hPa WSW 11.1 km/h 25.7 km/h 92% 1.5 mm 0.00 W/m2
16:55 10.4 °C 9.2 °C 977.5 hPa West 22.7 km/h 25.7 km/h 92% 1.5 mm 0.00 W/m2
17:00 10.4 °C 9.2 °C 977.5 hPa WSW 19.5 km/h 22.5 km/h 92% 1.5 mm 0.00 W/m2
17:05 10.4 °C 9.2 °C 977.5 hPa WSW 11.1 km/h 20.9 km/h 92% 1.3 mm 0.00 W/m2
17:10 10.3 °C 9.1 °C 977.5 hPa WSW 13.0 km/h 19.3 km/h 92% 1.0 mm 0.00 W/m2
17:15 10.3 °C 9.1 °C 977.5 hPa WSW 11.1 km/h 17.7 km/h 92% 1.0 mm 0.00 W/m2
17:20 10.3 °C 9.1 °C 977.5 hPa WSW 9.7 km/h 20.9 km/h 92% 0.8 mm 0.00 W/m2
17:25 10.3 °C 9.1 °C 977.5 hPa West 16.3 km/h 25.7 km/h 92% 1.0 mm 0.00 W/m2
17:30 10.3 °C 9.1 °C 977.5 hPa WSW 11.1 km/h 22.5 km/h 92% 1.0 mm 0.00 W/m2
17:35 10.3 °C 9.1 °C 977.5 hPa West 9.7 km/h 22.5 km/h 92% 0.8 mm 0.00 W/m2
17:40 10.3 °C 9.1 °C 977.5 hPa WSW 7.9 km/h 17.7 km/h 92% 0.8 mm 0.00 W/m2
17:45 10.3 °C 9.1 °C 977.5 hPa SW 16.3 km/h 17.7 km/h 92% 1.0 mm 0.00 W/m2
17:50 10.3 °C 9.1 °C 977.5 hPa SW 13.0 km/h 22.5 km/h 92% 0.8 mm 0.00 W/m2
17:55 10.3 °C 9.1 °C 977.5 hPa SW 9.7 km/h 22.5 km/h 92% 0.8 mm 0.00 W/m2
18:00 10.3 °C 9.1 °C 977.5 hPa West 7.9 km/h 17.7 km/h 92% 0.5 mm 0.00 W/m2
18:05 10.3 °C 9.1 °C 977.5 hPa WSW 6.4 km/h 19.3 km/h 92% 0.5 mm 0.00 W/m2
18:10 10.2 °C 9.0 °C 977.5 hPa SW 9.7 km/h 17.7 km/h 92% 0.5 mm 0.00 W/m2
18:15 10.2 °C 9.0 °C 977.5 hPa SW 11.1 km/h 22.5 km/h 92% 0.5 mm 0.00 W/m2
18:20 10.1 °C 8.9 °C 977.5 hPa WSW 11.1 km/h 20.9 km/h 92% 0.5 mm 0.00 W/m2
18:25 10.1 °C 8.9 °C 977.5 hPa WSW 7.9 km/h 27.4 km/h 92% 0.5 mm 0.00 W/m2
18:30 10.1 °C 8.9 °C 977.9 hPa SW 16.3 km/h 24.1 km/h 92% 0.5 mm 0.00 W/m2
18:35 10.1 °C 8.9 °C 977.9 hPa WSW 11.1 km/h 24.1 km/h 92% 0.5 mm 0.00 W/m2
18:40 10.1 °C 8.9 °C 977.9 hPa SW 9.7 km/h 16.1 km/h 92% 0.5 mm 0.00 W/m2
18:45 10.1 °C 8.9 °C 977.9 hPa SW 16.3 km/h 20.9 km/h 92% 0.3 mm 0.00 W/m2
18:50 10.1 °C 8.9 °C 977.9 hPa West 9.7 km/h 17.7 km/h 92% 0.3 mm 0.00 W/m2
18:55 10.0 °C 8.8 °C 977.9 hPa SW 11.1 km/h 16.1 km/h 92% 0.3 mm 0.00 W/m2
19:00 10.0 °C 8.8 °C 977.9 hPa WSW 11.1 km/h 20.9 km/h 92% 0.3 mm 0.00 W/m2
19:05 10.0 °C 8.8 °C 977.9 hPa SW 11.1 km/h 20.9 km/h 92% 0.3 mm 0.00 W/m2
19:10 9.9 °C 8.7 °C 977.9 hPa WSW 11.1 km/h 19.3 km/h 92% 0.5 mm 0.00 W/m2
19:15 9.9 °C 8.7 °C 977.9 hPa SW 11.1 km/h 12.9 km/h 92% 0.5 mm 0.00 W/m2
19:20 9.8 °C 8.6 °C 977.9 hPa WSW 9.7 km/h 19.3 km/h 92% 0.5 mm 0.00 W/m2
19:25 9.8 °C 8.6 °C 977.9 hPa WSW 20.9 km/h 22.5 km/h 92% 0.3 mm 0.00 W/m2
19:30 9.7 °C 8.5 °C 977.9 hPa SSW 11.1 km/h 22.5 km/h 92% 0.3 mm 0.00 W/m2
19:35 9.7 °C 8.5 °C 977.9 hPa WSW 16.3 km/h 16.1 km/h 92% 0.3 mm 0.00 W/m2
19:40 9.7 °C 8.5 °C 977.9 hPa WSW 14.3 km/h 24.1 km/h 92% 0.3 mm 0.00 W/m2
19:45 9.7 °C 8.5 °C 977.9 hPa SW 7.9 km/h 19.3 km/h 92% 0.3 mm 0.00 W/m2
19:50 9.6 °C 8.4 °C 977.9 hPa SW 14.3 km/h 20.9 km/h 92% 0.3 mm 0.00 W/m2
19:55 9.6 °C 8.4 °C 977.9 hPa WSW 16.3 km/h 16.1 km/h 92% 0.3 mm 0.00 W/m2
20:00 9.6 °C 8.4 °C 977.9 hPa SSW 11.1 km/h 20.9 km/h 92% 0.3 mm 0.00 W/m2
20:05 9.6 °C 8.4 °C 977.9 hPa SSW 7.9 km/h 20.9 km/h 92% 0.3 mm 0.00 W/m2
20:10 9.6 °C 8.4 °C 977.9 hPa WSW 4.7 km/h 14.5 km/h 92% 0.0 mm 0.00 W/m2
20:15 9.6 °C 8.4 °C 977.9 hPa WSW 6.4 km/h 19.3 km/h 92% 0.0 mm 0.00 W/m2
20:20 9.6 °C 8.4 °C 977.9 hPa SW 11.1 km/h 20.9 km/h 92% 0.0 mm 0.00 W/m2
20:25 9.6 °C 8.4 °C 977.9 hPa WSW 9.7 km/h 14.5 km/h 92% 0.0 mm 0.00 W/m2
20:30 9.6 °C 8.4 °C 977.9 hPa WSW 24.1 km/h 25.7 km/h 92% 0.3 mm 0.00 W/m2
20:35 9.6 °C 8.4 °C 977.9 hPa WSW 9.7 km/h 19.3 km/h 92% 0.3 mm 0.00 W/m2
20:40 9.7 °C 8.5 °C 977.9 hPa WSW 16.3 km/h 22.5 km/h 92% 0.3 mm 0.00 W/m2
20:45 9.7 °C 8.5 °C 977.9 hPa WSW 7.9 km/h 24.1 km/h 92% 0.3 mm 0.00 W/m2
20:50 9.7 °C 8.3 °C 977.9 hPa SW 6.4 km/h 22.5 km/h 91% 0.3 mm 0.00 W/m2
20:55 9.7 °C 8.3 °C 977.9 hPa WSW 14.3 km/h 16.1 km/h 91% 0.3 mm 0.00 W/m2
21:00 9.8 °C 8.4 °C 977.9 hPa West 9.7 km/h 20.9 km/h 91% 0.3 mm 0.00 W/m2
21:05 9.8 °C 8.2 °C 977.9 hPa WSW 9.7 km/h 22.5 km/h 90% 0.3 mm 0.00 W/m2
21:10 9.7 °C 8.1 °C 977.9 hPa SW 11.1 km/h 22.5 km/h 90% 0.3 mm 0.00 W/m2
21:15 9.7 °C 8.1 °C 977.9 hPa WSW 9.7 km/h 19.3 km/h 90% 0.3 mm 0.00 W/m2
21:20 9.7 °C 8.1 °C 977.9 hPa WSW 11.1 km/h 12.9 km/h 90% 0.3 mm 0.00 W/m2
21:25 9.6 °C 8.0 °C 977.9 hPa SW 6.4 km/h 20.9 km/h 90% 0.3 mm 0.00 W/m2
21:30 9.6 °C 8.0 °C 977.9 hPa SSW 6.4 km/h 9.7 km/h 90% 0.0 mm 0.00 W/m2
21:35 9.5 °C 7.9 °C 977.9 hPa SW 11.1 km/h 29.0 km/h 90% 0.0 mm 0.00 W/m2
21:40 9.5 °C 7.9 °C 977.9 hPa West 6.4 km/h 16.1 km/h 90% 0.0 mm 0.00 W/m2
21:45 9.5 °C 7.9 °C 977.9 hPa SW 13.0 km/h 17.7 km/h 90% 0.0 mm 0.00 W/m2
21:50 9.4 °C 7.8 °C 977.9 hPa WSW 7.9 km/h 17.7 km/h 90% 0.0 mm 0.00 W/m2
21:55 9.4 °C 7.8 °C 977.9 hPa WSW 9.7 km/h 24.1 km/h 90% 0.0 mm 0.00 W/m2
22:00 9.4 °C 7.8 °C 977.9 hPa WSW 9.7 km/h 20.9 km/h 90% 0.0 mm 0.00 W/m2
22:05 9.4 °C 7.8 °C 977.9 hPa West 9.7 km/h 16.1 km/h 90% 0.0 mm 0.00 W/m2
22:10 9.4 °C 7.8 °C 977.9 hPa SW 13.0 km/h 22.5 km/h 90% 0.0 mm 0.00 W/m2
22:15 9.4 °C 7.8 °C 977.9 hPa SW 11.1 km/h 20.9 km/h 90% 0.0 mm 0.00 W/m2
22:20 9.4 °C 7.7 °C 977.9 hPa WSW 7.9 km/h 12.9 km/h 89% 0.0 mm 0.00 W/m2
22:25 9.4 °C 7.7 °C 977.9 hPa SW 13.0 km/h 19.3 km/h 89% 0.0 mm 0.00 W/m2
22:30 9.4 °C 7.7 °C 977.9 hPa WSW 9.7 km/h 14.5 km/h 89% 0.0 mm 0.00 W/m2
22:35 9.3 °C 7.6 °C 977.5 hPa SW 9.7 km/h 17.7 km/h 89% 0.0 mm 0.00 W/m2
22:40 9.3 °C 7.6 °C 977.5 hPa WSW 4.7 km/h 16.1 km/h 89% 0.0 mm 0.00 W/m2
22:45 9.3 °C 7.6 °C 977.5 hPa SW 7.9 km/h 20.9 km/h 89% 0.0 mm 0.00 W/m2
22:50 9.3 °C 7.6 °C 977.9 hPa WSW 11.1 km/h 14.5 km/h 89% 0.0 mm 0.00 W/m2
22:55 9.3 °C 7.4 °C 977.9 hPa SW 7.9 km/h 17.7 km/h 88% 0.0 mm 0.00 W/m2
23:00 9.3 °C 7.6 °C 977.9 hPa WSW 3.2 km/h 8.0 km/h 89% 0.0 mm 0.00 W/m2
23:05 9.2 °C 7.3 °C 977.9 hPa WSW 4.7 km/h 12.9 km/h 88% 0.0 mm 0.00 W/m2
23:10 9.2 °C 7.3 °C 977.9 hPa WSW 7.9 km/h 17.7 km/h 88% 0.0 mm 0.00 W/m2
23:15 9.2 °C 7.3 °C 977.5 hPa WSW 1.4 km/h 12.9 km/h 88% 0.0 mm 0.00 W/m2
23:20 9.2 °C 7.3 °C 977.5 hPa WSW 13.0 km/h 17.7 km/h 88% 0.0 mm 0.00 W/m2
23:25 9.2 °C 7.3 °C 977.5 hPa SW 9.7 km/h 11.3 km/h 88% 0.0 mm 0.00 W/m2
23:30 9.3 °C 7.2 °C 977.5 hPa WSW 3.2 km/h 14.5 km/h 87% 0.0 mm 0.00 W/m2
23:35 9.2 °C 7.1 °C 977.5 hPa WSW 6.4 km/h 8.0 km/h 87% 0.0 mm 0.00 W/m2
23:40 9.2 °C 7.1 °C 977.9 hPa West 9.7 km/h 14.5 km/h 87% 0.0 mm 0.00 W/m2
23:45 9.2 °C 7.1 °C 977.9 hPa WSW 7.9 km/h 16.1 km/h 87% 0.0 mm 0.00 W/m2
23:50 9.2 °C 7.1 °C 977.9 hPa SW 9.7 km/h 12.9 km/h 87% 0.0 mm 0.00 W/m2
23:55 9.1 °C 6.9 °C 977.9 hPa SW 11.1 km/h 19.3 km/h 86% 0.0 mm 0.00 W/m2